IT9CNT Weather Reports


Display with metric or nautical units.
time (UTC)temp
F
wind
direction
speed
MPH
gust
MPH
rain 1hr
in
rain 24hr
in
rain mn
in
humidity
%
barometer
mb
20260504120303 65 164 8.0 11.0 0.00 0.00 0.00 76 1017.1
20260504120203 65 161 8.0 11.0 0.00 0.00 0.00 75 1017.1
20260504120108 65 158 8.0 11.0 0.00 0.00 0.00 76 1017.1
20260504110703 65 221 6.0 9.0 0.00 0.00 0.00 76 1017.5
20260504110603 65 228 6.0 11.0 0.00 0.00 0.00 75 1017.3
20260504110503 63 238 6.0 11.0 0.00 0.00 0.00 76 1017.4
20260504110403 64 238 6.0 11.0 0.00 0.00 0.00 76 1017.4
20260504110203 64 224 7.0 11.0 0.00 0.00 0.00 76 1017.4
20260504110103 64 227 7.0 11.0 0.00 0.00 0.00 76 1017.5
20260504100603 64 176 6.0 8.0 0.00 0.00 0.00 74 1017.9
20260504100508 64 173 6.0 8.0 0.00 0.00 0.00 74 1017.8
20260504100403 64 173 6.0 8.0 0.00 0.00 0.00 74 1017.9
20260504100303 65 172 5.0 8.0 0.00 0.00 0.00 73 1017.8
20260504100203 64 169 5.0 8.0 0.00 0.00 0.00 74 1017.8
20260504100103 65 170 6.0 8.0 0.00 0.00 0.00 74 1017.9
20260504082004 61 116 6.0 8.0 0.00 0.00 0.00 61 1017.8
20260504081903 61 116 6.0 8.0 0.00 0.00 0.00 61 1017.8
20260504081803 62 119 6.0 8.0 0.00 0.00 0.00 60 1017.8
20260504081703 62 128 5.0 8.0 0.00 0.00 0.00 60 1017.8
20260504081603 61 136 5.0 8.0 0.00 0.00 0.00 60 1017.8
20260504081503 62 140 6.0 9.0 0.00 0.00 0.00 60 1017.8
20260504081403 62 145 6.0 9.0 0.00 0.00 0.00 60 1017.8
20260504081303 62 153 5.0 9.0 0.00 0.00 0.00 59 1017.8
20260504081203 63 165 5.0 9.0 0.00 0.00 0.00 59 1017.8
20260504081103 63 171 4.0 9.0 0.00 0.00 0.00 60 1017.8
20260504081003 62 174 4.0 9.0 0.00 0.00 0.00 60 1017.8
20260504080903 62 167 4.0 9.0 0.00 0.00 0.00 60 1017.8
20260504080803 62 163 4.0 9.0 0.00 0.00 0.00 61 1017.8
20260504080703 62 156 4.0 9.0 0.00 0.00 0.00 61 1017.8
20260504080603 61 155 4.0 9.0 0.00 0.00 0.00 60 1017.8
20260504080503 62 156 3.0 8.0 0.00 0.00 0.00 59 1017.8
20260504080403 63 162 3.0 9.0 0.00 0.00 0.00 60 1017.7
20260504080303 62 166 4.0 9.0 0.00 0.00 0.00 60 1017.7
20260504080203 62 166 4.0 9.0 0.00 0.00 0.00 62 1017.7
20260504080103 62 157 5.0 9.0 0.00 0.00 0.00 62 1017.9
20260504070403 59 140 5.0 8.0 0.00 0.00 0.00 66 1017.7
20260504070303 59 144 4.0 8.0 0.00 0.00 0.00 66 1017.6
20260504070203 59 145 4.0 8.0 0.00 0.00 0.00 66 1017.8
20260504060203 59 90 0.0 4.0 0.00 0.00 0.00 68 1017.2
20260504050603 55 0 0.0 0.0 0.00 0.00 0.00 75 1017.4
20260504050503 55 0 0.0 0.0 0.00 0.00 0.00 75 1017.2
20260504050403 55 0 0.0 0.0 0.00 0.00 0.00 75 1017.4
20260504050303 55 0 0.0 0.0 0.00 0.00 0.00 76 1017.3
20260504050203 55 0 0.0 0.0 0.00 0.00 0.00 76 1017.1
20260504050103 55 0 0.0 0.0 0.00 0.00 0.00 76 1017.0
20260504050003 55 0 0.0 0.0 0.00 0.00 0.00 76 1017.2
20260504045903 55 0 0.0 0.0 0.00 0.00 0.00 76 1017.0
20260504045803 55 0 0.0 0.0 0.00 0.00 0.00 76 1017.2
20260504045703 55 0 0.0 0.0 0.00 0.00 0.00 76 1017.0
20260504045603 55 0 0.0 0.0 0.00 0.00 0.00 76 1017.1
20260504045503 55 0 0.0 0.0 0.00 0.00 0.00 76 1016.9
20260504045403 55 0 0.0 0.0 0.00 0.00 0.00 76 1017.0
20260504045304 55 0 0.0 0.0 0.00 0.00 0.00 76 1017.0
20260504045203 55 0 0.0 0.0 0.00 0.00 0.00 76 1016.9
20260504045103 55 0 0.0 0.0 0.00 0.00 0.00 76 1017.1
20260504045003 55 0 0.0 0.0 0.00 0.00 0.00 76 1016.9
20260504044903 55 0 0.0 0.0 0.00 0.00 0.00 76 1017.0
20260504044803 55 0 0.0 0.0 0.00 0.00 0.00 76 1016.8
20260504044703 55 0 0.0 0.0 0.00 0.00 0.00 76 1016.9
20260504044603 55 0 0.0 0.0 0.00 0.00 0.00 76 1016.9
20260504044504 55 0 0.0 0.0 0.00 0.00 0.00 77 1017.2
20260504044403 54 0 0.0 0.0 0.00 0.00 0.00 77 1017.1
20260504044303 54 0 0.0 0.0 0.00 0.00 0.00 77 1017.0
20260504044203 54 0 0.0 0.0 0.00 0.00 0.00 77 1017.0
20260504044103 54 0 0.0 0.0 0.00 0.00 0.00 77 1016.9
20260504044003 54 0 0.0 0.0 0.00 0.00 0.00 76 1017.1
20260504043903 54 0 0.0 0.0 0.00 0.00 0.00 76 1016.9
20260504043803 54 0 0.0 0.0 0.00 0.00 0.00 76 1017.1
20260504043703 54 0 0.0 0.0 0.00 0.00 0.00 76 1017.1
20260504043603 54 0 0.0 0.0 0.00 0.00 0.00 77 1017.1
20260504043503 54 0 0.0 0.0 0.00 0.00 0.00 77 1017.0
20260504043403 54 0 0.0 0.0 0.00 0.00 0.00 77 1016.9
20260504043303 54 0 0.0 0.0 0.00 0.00 0.00 77 1016.9
20260504043203 54 0 0.0 0.0 0.00 0.00 0.00 77 1016.9
20260504043103 54 0 0.0 0.0 0.00 0.00 0.00 77 1016.9
20260504043003 54 0 0.0 0.0 0.00 0.00 0.00 77 1016.9
20260504042903 54 0 0.0 0.0 0.00 0.00 0.00 77 1016.8
20260504042803 54 0 0.0 0.0 0.00 0.00 0.00 77 1017.0
20260504042703 54 0 0.0 0.0 0.00 0.00 0.00 77 1016.8
20260504042603 54 0 0.0 0.0 0.00 0.00 0.00 77 1016.8
20260504042503 54 0 0.0 0.0 0.00 0.00 0.00 77 1016.8
20260504042403 54 0 0.0 0.0 0.00 0.00 0.00 77 1016.8
20260504042304 54 0 0.0 0.0 0.00 0.00 0.00 77 1016.8
20260504042203 54 0 0.0 0.0 0.00 0.00 0.00 77 1016.8
20260504042103 54 0 0.0 0.0 0.00 0.00 0.00 77 1016.6
20260504042003 54 0 0.0 0.0 0.00 0.00 0.00 77 1016.6
20260504041903 54 0 0.0 0.0 0.00 0.00 0.00 77 1016.6
20260504041803 54 0 0.0 0.0 0.00 0.00 0.00 77 1016.6
20260504041703 54 0 0.0 0.0 0.00 0.00 0.00 77 1016.6
20260504041603 53 0 0.0 0.0 0.00 0.00 0.00 77 1016.6
20260504041503 53 0 0.0 0.0 0.00 0.00 0.00 77 1016.6
20260504041403 53 0 0.0 0.0 0.00 0.00 0.00 77 1016.6
20260504041303 53 0 0.0 0.0 0.00 0.00 0.00 77 1016.6
20260504041203 54 0 0.0 0.0 0.00 0.00 0.00 77 1016.6
20260504041103 53 0 0.0 0.0 0.00 0.00 0.00 77 1016.6
20260504041003 53 0 0.0 0.0 0.00 0.00 0.00 77 1016.6
20260504040903 53 0 0.0 0.0 0.00 0.00 0.00 77 1016.6
20260504040803 53 0 0.0 0.0 0.00 0.00 0.00 77 1016.6
20260504040703 53 0 0.0 0.0 0.00 0.00 0.00 77 1016.6
20260504040603 53 0 0.0 0.0 0.00 0.00 0.00 76 1016.6
20260504040503 53 0 0.0 0.0 0.00 0.00 0.00 76 1016.6
20260504040403 53 0 0.0 0.0 0.00 0.00 0.00 76 1016.6
20260504040303 53 0 0.0 0.0 0.00 0.00 0.00 76 1016.6
20260504040203 53 0 0.0 0.0 0.00 0.00 0.00 76 1016.6
20260504040103 53 0 0.0 0.0 0.00 0.00 0.00 76 1016.6
20260504040004 53 0 0.0 0.0 0.00 0.00 0.00 76 1016.6
20260504035903 54 0 0.0 0.0 0.00 0.00 0.00 76 1016.6
20260504035803 54 0 0.0 0.0 0.00 0.00 0.00 76 1016.6
20260504035703 54 0 0.0 0.0 0.00 0.00 0.00 76 1016.6
20260504035603 54 0 0.0 0.0 0.00 0.00 0.00 76 1016.6
20260504035503 54 0 0.0 0.0 0.00 0.00 0.00 76 1016.6
20260504035403 54 0 0.0 0.0 0.00 0.00 0.00 76 1016.6
20260504035305 54 0 0.0 0.0 0.00 0.00 0.00 76 1016.6
20260504035203 54 0 0.0 0.0 0.00 0.00 0.00 76 1016.8
20260504035103 54 0 0.0 0.0 0.00 0.00 0.00 76 1016.7
20260504035003 54 0 0.0 0.0 0.00 0.00 0.00 76 1016.7
20260504034903 54 0 0.0 0.0 0.00 0.00 0.00 76 1016.7
20260504034803 54 0 0.0 0.0 0.00 0.00 0.00 76 1016.5
20260504034703 54 0 0.0 0.0 0.00 0.00 0.00 76 1016.7
20260504034603 54 0 0.0 0.0 0.00 0.00 0.00 76 1016.6
20260504034503 54 0 0.0 0.0 0.00 0.00 0.00 76 1016.6
20260504034403 54 0 0.0 0.0 0.00 0.00 0.00 76 1016.7
20260504034303 54 0 0.0 0.0 0.00 0.00 0.00 76 1016.8
20260504034203 54 0 0.0 0.0 0.00 0.00 0.00 76 1016.5
20260504034103 54 0 0.0 0.0 0.00 0.00 0.00 76 1016.7
20260504034003 54 0 0.0 0.0 0.00 0.00 0.00 76 1016.9
20260504033903 54 0 0.0 0.0 0.00 0.00 0.00 76 1016.8
20260504033803 54 0 0.0 0.0 0.00 0.00 0.00 76 1016.6
20260504033703 54 0 0.0 0.0 0.00 0.00 0.00 76 1016.5
20260504033603 54 0 0.0 0.0 0.00 0.00 0.00 76 1016.5
20260504033503 54 0 0.0 0.0 0.00 0.00 0.00 76 1016.9
20260504033303 54 0 0.0 0.0 0.00 0.00 0.00 76 1016.6
20260504033203 54 0 0.0 0.0 0.00 0.00 0.00 76 1016.7
20260504033103 54 0 0.0 0.0 0.00 0.00 0.00 76 1016.7
20260504033003 53 0 0.0 0.0 0.00 0.00 0.00 76 1016.8
20260504032903 53 0 0.0 0.0 0.00 0.00 0.00 76 1016.8
20260504032803 54 0 0.0 0.0 0.00 0.00 0.00 76 1017.0
20260504032703 54 0 0.0 0.0 0.00 0.00 0.00 76 1016.8
20260504032603 54 0 0.0 0.0 0.00 0.00 0.00 76 1016.5
20260504032503 54 0 0.0 0.0 0.00 0.00 0.00 76 1016.7
20260504032403 54 0 0.0 0.0 0.00 0.00 0.00 76 1016.5
20260504032304 54 0 0.0 0.0 0.00 0.00 0.00 76 1016.6
20260504032203 54 0 0.0 0.0 0.00 0.00 0.00 76 1016.8
20260504032003 54 0 0.0 0.0 0.00 0.00 0.00 76 1016.7
20260504031903 54 0 0.0 0.0 0.00 0.00 0.00 76 1016.6
20260504031803 54 0 0.0 0.0 0.00 0.00 0.00 76 1016.7
20260504031703 54 0 0.0 0.0 0.00 0.00 0.00 76 1016.7
20260504031603 54 0 0.0 0.0 0.00 0.00 0.00 76 1016.7
20260504031503 54 0 0.0 0.0 0.00 0.00 0.00 76 1016.6
20260504031403 54 0 0.0 0.0 0.00 0.00 0.00 76 1016.7
20260504031303 54 0 0.0 0.0 0.00 0.00 0.00 76 1016.4
20260504031203 54 0 0.0 0.0 0.00 0.00 0.00 76 1016.7
20260504031103 54 0 0.0 0.0 0.00 0.00 0.00 76 1016.7
20260504031003 54 0 0.0 0.0 0.00 0.00 0.00 76 1016.6
20260504030903 54 0 0.0 0.0 0.00 0.00 0.00 76 1016.7
20260504030803 54 0 0.0 0.0 0.00 0.00 0.00 76 1016.5
20260504030703 54 0 0.0 0.0 0.00 0.00 0.00 76 1016.5
20260504030603 54 0 0.0 0.0 0.00 0.00 0.00 76 1016.6
20260504030503 54 0 0.0 0.0 0.00 0.00 0.00 76 1016.5
20260504030403 54 0 0.0 0.0 0.00 0.00 0.00 76 1016.6
20260504030303 54 0 0.0 0.0 0.00 0.00 0.00 76 1016.8
20260504030203 54 0 0.0 0.0 0.00 0.00 0.00 76 1016.6
20260504030003 54 0 0.0 0.0 0.00 0.00 0.00 76 1016.8
20260504025903 54 0 0.0 0.0 0.00 0.00 0.00 76 1016.6
20260504025803 53 0 0.0 0.0 0.00 0.00 0.00 76 1016.6
20260504025703 53 0 0.0 0.0 0.00 0.00 0.00 76 1016.5
20260504025603 53 0 0.0 0.0 0.00 0.00 0.00 75 1016.7
20260504025503 53 0 0.0 0.0 0.00 0.00 0.00 75 1016.9
20260504025403 53 0 0.0 0.0 0.00 0.00 0.00 75 1016.6
20260504025304 53 0 0.0 0.0 0.00 0.00 0.00 75 1016.7
20260504025203 53 0 0.0 0.0 0.00 0.00 0.00 75 1016.7
20260504025103 54 0 0.0 0.0 0.00 0.00 0.00 75 1016.7
20260504025003 53 0 0.0 0.0 0.00 0.00 0.00 75 1016.8
20260504024904 53 0 0.0 0.0 0.00 0.00 0.00 75 1016.7
20260504024803 53 0 0.0 0.0 0.00 0.00 0.00 75 1016.6
20260504024703 53 0 0.0 0.0 0.00 0.00 0.00 75 1016.6
20260504024604 53 0 0.0 0.0 0.00 0.00 0.00 75 1016.6
20260504024503 53 0 0.0 0.0 0.00 0.00 0.00 75 1016.7
20260504024403 53 0 0.0 0.0 0.00 0.00 0.00 75 1016.6
20260504024303 54 0 0.0 0.0 0.00 0.00 0.00 75 1016.8
20260504024204 54 0 0.0 0.0 0.00 0.00 0.00 75 1016.8
20260504024103 54 0 0.0 0.0 0.00 0.00 0.00 75 1016.7
20260504024003 54 0 0.0 0.0 0.00 0.00 0.00 75 1016.8
20260504023903 54 0 0.0 0.0 0.00 0.00 0.00 75 1016.7
20260504023803 54 0 0.0 0.0 0.00 0.00 0.00 75 1016.7
20260504023703 54 0 0.0 0.0 0.00 0.00 0.00 75 1016.8
20260504023603 54 0 0.0 0.0 0.00 0.00 0.00 75 1016.8
20260504023503 54 0 0.0 0.0 0.00 0.00 0.00 75 1016.6
20260504023403 54 0 0.0 0.0 0.00 0.00 0.00 75 1016.7
20260504023303 55 0 0.0 0.0 0.00 0.00 0.00 75 1016.8
20260504023203 55 0 0.0 0.0 0.00 0.00 0.00 75 1016.8
20260504023103 55 0 0.0 0.0 0.00 0.00 0.00 75 1016.8
20260504023003 55 0 0.0 0.0 0.00 0.00 0.00 75 1016.8
20260504022903 55 0 0.0 0.0 0.00 0.00 0.00 75 1016.8
20260504022803 55 0 0.0 0.0 0.00 0.00 0.00 75 1016.8
20260504022703 55 0 0.0 0.0 0.00 0.00 0.00 75 1016.5
20260504022603 55 0 0.0 0.0 0.00 0.00 0.00 74 1016.9
20260504022503 55 0 0.0 0.0 0.00 0.00 0.00 74 1016.9
20260504022403 55 0 0.0 0.0 0.00 0.00 0.00 74 1016.6
20260504022304 55 0 0.0 0.0 0.00 0.00 0.00 74 1016.9
20260504022203 55 0 0.0 0.0 0.00 0.00 0.00 74 1016.8
20260504022103 55 0 0.0 0.0 0.00 0.00 0.00 74 1016.8
20260504022003 55 0 0.0 0.0 0.00 0.00 0.00 74 1016.9
20260504021903 55 0 0.0 0.0 0.00 0.00 0.00 74 1016.9
20260504021803 55 0 0.0 0.0 0.00 0.00 0.00 74 1017.0
20260504021703 55 0 0.0 0.0 0.00 0.00 0.00 74 1017.0
20260504021603 55 0 0.0 0.0 0.00 0.00 0.00 74 1016.8
20260504021504 55 0 0.0 0.0 0.00 0.00 0.00 74 1016.8
20260504021403 55 0 0.0 0.0 0.00 0.00 0.00 74 1016.7
20260504021303 55 0 0.0 0.0 0.00 0.00 0.00 74 1016.7
20260504021203 55 0 0.0 0.0 0.00 0.00 0.00 74 1016.9
20260504021103 55 0 0.0 0.0 0.00 0.00 0.00 74 1016.7
20260504021003 55 0 0.0 0.0 0.00 0.00 0.00 74 1016.7
20260504020903 55 0 0.0 0.0 0.00 0.00 0.00 74 1016.7
20260504020803 55 0 0.0 0.0 0.00 0.00 0.00 74 1017.0
20260504020703 55 0 0.0 0.0 0.00 0.00 0.00 74 1016.8
20260504020607 55 0 0.0 0.0 0.00 0.00 0.00 74 1016.9
20260504020504 55 0 0.0 0.0 0.00 0.00 0.00 74 1016.8
20260504020403 55 0 0.0 0.0 0.00 0.00 0.00 74 1016.8
20260504020303 55 0 0.0 0.0 0.00 0.00 0.00 74 1016.8
20260504020103 55 0 0.0 0.0 0.00 0.00 0.00 74 1016.7
20260504020003 55 0 0.0 0.0 0.00 0.00 0.00 74 1016.9
20260504015903 55 0 0.0 0.0 0.00 0.00 0.00 74 1016.8
20260504015803 56 0 0.0 0.0 0.00 0.00 0.00 74 1016.7
20260504015703 56 0 0.0 0.0 0.00 0.00 0.00 74 1016.8
20260504015603 56 0 0.0 0.0 0.00 0.00 0.00 74 1016.7
20260504015503 56 0 0.0 0.0 0.00 0.00 0.00 74 1016.8
20260504015403 56 0 0.0 0.0 0.00 0.00 0.00 74 1016.9
20260504015304 56 0 0.0 0.0 0.00 0.00 0.00 74 1016.7
20260504015203 56 0 0.0 0.0 0.00 0.00 0.00 74 1016.6
20260504015103 56 0 0.0 0.0 0.00 0.00 0.00 74 1016.7
20260504015003 56 0 0.0 0.0 0.00 0.00 0.00 74 1016.6
20260504014903 56 0 0.0 0.0 0.00 0.00 0.00 74 1016.7
20260504014803 56 0 0.0 0.0 0.00 0.00 0.00 74 1016.6
20260504014703 56 0 0.0 0.0 0.00 0.00 0.00 74 1016.5
20260504014603 56 0 0.0 0.0 0.00 0.00 0.00 74 1016.6
20260504014503 56 0 0.0 0.0 0.00 0.00 0.00 74 1016.7
20260504014403 56 0 0.0 0.0 0.00 0.00 0.00 74 1016.8
20260504014303 56 0 0.0 0.0 0.00 0.00 0.00 74 1016.5
20260504014203 56 0 0.0 0.0 0.00 0.00 0.00 74 1016.7
20260504014103 56 0 0.0 0.0 0.00 0.00 0.00 74 1016.5
20260504014003 56 0 0.0 0.0 0.00 0.00 0.00 74 1016.8
20260504013903 56 0 0.0 0.0 0.00 0.00 0.00 74 1016.7
20260504013803 56 0 0.0 0.0 0.00 0.00 0.00 74 1016.6
20260504013703 56 0 0.0 0.0 0.00 0.00 0.00 74 1016.7
20260504013603 56 0 0.0 0.0 0.00 0.00 0.00 74 1016.6
20260504013503 56 0 0.0 0.0 0.00 0.00 0.00 74 1016.7
20260504013403 56 0 0.0 0.0 0.00 0.00 0.00 74 1016.8
20260504013303 56 0 0.0 0.0 0.00 0.00 0.00 74 1016.6
20260504013203 56 0 0.0 0.0 0.00 0.00 0.00 74 1016.6
20260504013103 56 0 0.0 0.0 0.00 0.00 0.00 74 1016.4
20260504013003 56 0 0.0 0.0 0.00 0.00 0.00 74 1016.6
20260504012903 56 0 0.0 0.0 0.00 0.00 0.00 74 1016.8
20260504012803 56 0 0.0 0.0 0.00 0.00 0.00 74 1016.6
20260504012703 56 0 0.0 0.0 0.00 0.00 0.00 74 1016.6
20260504012603 56 0 0.0 0.0 0.00 0.00 0.00 74 1016.4
20260504012503 56 0 0.0 0.0 0.00 0.00 0.00 74 1016.5
20260504012403 56 0 0.0 0.0 0.00 0.00 0.00 74 1016.7
20260504012304 56 0 0.0 0.0 0.00 0.00 0.00 74 1016.5
20260504012203 56 0 0.0 0.0 0.00 0.00 0.00 74 1016.6
20260504012103 56 0 0.0 0.0 0.00 0.00 0.00 74 1016.5
20260504012003 56 0 0.0 0.0 0.00 0.00 0.00 74 1016.5
20260504011903 56 0 0.0 0.0 0.00 0.00 0.00 74 1016.8
20260504011803 56 0 0.0 0.0 0.00 0.00 0.00 74 1016.6
20260504011703 56 0 0.0 0.0 0.00 0.00 0.00 73 1016.5
20260504011603 56 0 0.0 0.0 0.00 0.00 0.00 73 1016.5
20260504011503 56 0 0.0 0.0 0.00 0.00 0.00 73 1016.6
20260504011403 56 0 0.0 0.0 0.00 0.00 0.00 73 1016.7
20260504011303 56 0 0.0 0.0 0.00 0.00 0.00 73 1016.6
20260504011203 56 0 0.0 0.0 0.00 0.00 0.00 73 1016.5
20260504011103 56 0 0.0 0.0 0.00 0.00 0.00 73 1016.6
20260504011003 56 0 0.0 0.0 0.00 0.00 0.00 73 1016.4
20260504010803 56 0 0.0 0.0 0.00 0.00 0.00 73 1016.6
20260504010703 56 0 0.0 0.0 0.00 0.00 0.00 73 1016.5
20260504010603 56 0 0.0 0.0 0.00 0.00 0.00 73 1016.6
20260504010503 56 0 0.0 0.0 0.00 0.00 0.00 73 1016.5
20260504010403 56 0 0.0 0.0 0.00 0.00 0.00 73 1016.5
20260504010303 56 0 0.0 0.0 0.00 0.00 0.00 73 1016.8
20260504010208 56 0 0.0 0.0 0.00 0.00 0.00 73 1016.8
20260504010004 56 0 0.0 0.0 0.00 0.00 0.00 73 1016.6
20260504005903 56 0 0.0 0.0 0.00 0.00 0.00 73 1016.8
20260504005803 55 0 0.0 0.0 0.00 0.00 0.00 72 1016.7
20260504005703 55 0 0.0 0.0 0.00 0.00 0.00 72 1016.7
20260504005603 55 0 0.0 0.0 0.00 0.00 0.00 72 1016.8
20260504005503 55 0 0.0 0.0 0.00 0.00 0.00 72 1016.6
20260504005304 55 0 0.0 0.0 0.00 0.00 0.00 72 1016.8
20260504005203 55 0 0.0 0.0 0.00 0.00 0.00 72 1016.8
20260504005104 54 0 0.0 0.0 0.00 0.00 0.00 72 1016.8
20260504005004 54 0 0.0 0.0 0.00 0.00 0.00 72 1016.7
20260504004903 54 0 0.0 0.0 0.00 0.00 0.00 72 1016.8
20260504004803 54 0 0.0 0.0 0.00 0.00 0.00 72 1016.8
20260504004703 54 0 0.0 0.0 0.00 0.00 0.00 72 1016.9
20260504004603 54 0 0.0 0.0 0.00 0.00 0.00 72 1016.7
20260504004503 54 0 0.0 0.0 0.00 0.00 0.00 72 1016.7
20260504004403 55 0 0.0 0.0 0.00 0.00 0.00 72 1016.8
20260504004303 55 0 0.0 0.0 0.00 0.00 0.00 72 1016.7
20260504004203 55 0 0.0 0.0 0.00 0.00 0.00 72 1016.9
20260504004103 55 0 0.0 0.0 0.00 0.00 0.00 72 1016.9
20260504004003 55 0 0.0 0.0 0.00 0.00 0.00 71 1016.7
20260504003903 55 0 0.0 0.0 0.00 0.00 0.00 71 1016.9
20260504003803 55 0 0.0 0.0 0.00 0.00 0.00 71 1016.7
20260504003703 55 0 0.0 0.0 0.00 0.00 0.00 71 1016.8
20260504003603 55 0 0.0 0.0 0.00 0.00 0.00 71 1016.8
20260504003503 56 0 0.0 0.0 0.00 0.00 0.00 71 1016.8
20260504003403 56 0 0.0 0.0 0.00 0.00 0.00 71 1016.8
20260504003303 56 0 0.0 0.0 0.00 0.00 0.00 71 1016.8
20260504003203 56 0 0.0 0.0 0.00 0.00 0.00 71 1016.7
20260504003103 56 0 0.0 0.0 0.00 0.00 0.00 71 1016.6
20260504003003 56 0 0.0 0.0 0.00 0.00 0.00 71 1016.5
20260504002903 56 0 0.0 0.0 0.00 0.00 0.00 71 1016.9
20260504002803 56 0 0.0 0.0 0.00 0.00 0.00 71 1016.7
20260504002703 56 0 0.0 0.0 0.00 0.00 0.00 71 1016.7
20260504002603 56 0 0.0 0.0 0.00 0.00 0.00 71 1016.9
20260504002503 56 0 0.0 0.0 0.00 0.00 0.00 71 1016.5
20260504002403 56 0 0.0 0.0 0.00 0.00 0.00 70 1016.7
20260504002304 56 0 0.0 0.0 0.00 0.00 0.00 70 1016.7
20260504002203 56 0 0.0 0.0 0.00 0.00 0.00 70 1016.7
20260504002103 56 0 0.0 0.0 0.00 0.00 0.00 70 1016.8
20260504002003 56 0 0.0 0.0 0.00 0.00 0.00 70 1016.7
20260504001903 56 0 0.0 0.0 0.00 0.00 0.00 70 1016.9
20260504001803 56 0 0.0 0.0 0.00 0.00 0.00 70 1016.9
20260504001703 56 0 0.0 0.0 0.00 0.00 0.00 70 1016.8
20260504001603 56 0 0.0 0.0 0.00 0.00 0.00 70 1016.9
20260504001503 56 0 0.0 0.0 0.00 0.00 0.00 70 1016.8
20260504001403 56 0 0.0 0.0 0.00 0.00 0.00 70 1016.8
20260504001303 56 0 0.0 0.0 0.00 0.00 0.00 70 1017.1
20260504001203 56 0 0.0 0.0 0.00 0.00 0.00 70 1016.8
20260504001103 56 0 0.0 0.0 0.00 0.00 0.00 70 1016.7
20260504001003 56 0 0.0 0.0 0.00 0.00 0.00 70 1016.9
20260504000903 56 0 0.0 0.0 0.00 0.00 0.00 70 1016.9
20260504000803 56 0 0.0 0.0 0.00 0.00 0.00 70 1017.1
20260504000703 56 0 0.0 0.0 0.00 0.00 0.00 70 1016.9
20260504000603 56 0 0.0 0.0 0.00 0.00 0.00 70 1017.0
20260504000503 56 0 0.0 0.0 0.00 0.00 0.00 70 1016.9
20260504000403 56 0 0.0 0.0 0.00 0.00 0.00 70 1017.2
20260504000303 56 0 0.0 0.0 0.00 0.00 0.00 70 1017.2
20260504000204 56 0 0.0 0.0 0.00 0.00 0.00 70 1016.9
20260504000004 56 0 0.0 0.0 0.00 0.00 0.00 70 1017.0
20260503235903 56 0 0.0 0.0 0.00 0.00 0.00 70 1017.2
20260503235803 55 0 0.0 0.0 0.00 0.00 0.00 70 1017.0
20260503235703 55 0 0.0 0.0 0.00 0.00 0.00 69 1017.0
20260503235603 55 0 0.0 0.0 0.00 0.00 0.00 69 1017.2
20260503235503 55 0 0.0 0.0 0.00 0.00 0.00 69 1017.2
20260503235403 55 0 0.0 0.0 0.00 0.00 0.00 69 1016.9
20260503235304 55 0 0.0 0.0 0.00 0.00 0.00 69 1017.3
20260503235203 55 0 0.0 0.0 0.00 0.00 0.00 69 1017.1
20260503235103 55 0 0.0 0.0 0.00 0.00 0.00 69 1017.2
20260503235003 55 0 0.0 0.0 0.00 0.00 0.00 69 1017.1
20260503234903 55 0 0.0 0.0 0.00 0.00 0.00 69 1017.1
20260503234803 55 0 0.0 0.0 0.00 0.00 0.00 69 1017.1
20260503234703 55 0 0.0 0.0 0.00 0.00 0.00 69 1017.1
20260503234603 55 0 0.0 0.0 0.00 0.00 0.00 69 1017.0
20260503234503 56 0 0.0 0.0 0.00 0.00 0.00 69 1017.0
20260503234403 56 0 0.0 0.0 0.00 0.00 0.00 69 1017.0
20260503234303 56 0 0.0 0.0 0.00 0.00 0.00 69 1017.1
20260503234203 56 0 0.0 0.0 0.00 0.00 0.00 69 1017.1
20260503234103 56 0 0.0 0.0 0.00 0.00 0.00 69 1017.2
20260503234003 56 0 0.0 0.0 0.00 0.00 0.00 69 1017.1
20260503233903 56 0 0.0 0.0 0.00 0.00 0.00 69 1016.9
20260503233803 55 0 0.0 0.0 0.00 0.00 0.00 69 1017.1
20260503233703 55 0 0.0 0.0 0.00 0.00 0.00 69 1017.0
20260503233603 55 0 0.0 0.0 0.00 0.00 0.00 69 1017.2
20260503233503 55 0 0.0 0.0 0.00 0.00 0.00 69 1017.0
20260503233403 55 0 0.0 0.0 0.00 0.00 0.00 69 1017.2
20260503233303 55 0 0.0 0.0 0.00 0.00 0.00 69 1017.1
20260503233203 55 0 0.0 0.0 0.00 0.00 0.00 69 1017.2
20260503233103 55 0 0.0 0.0 0.00 0.00 0.00 69 1017.4
20260503233003 55 0 0.0 0.0 0.00 0.00 0.00 69 1017.3
20260503232903 56 0 0.0 0.0 0.00 0.00 0.00 69 1017.4
20260503232803 56 0 0.0 0.0 0.00 0.00 0.00 69 1017.2
20260503232703 56 0 0.0 0.0 0.00 0.00 0.00 69 1017.3
20260503232603 56 0 0.0 0.0 0.00 0.00 0.00 69 1017.2
20260503232503 56 0 0.0 0.0 0.00 0.00 0.00 69 1017.3
20260503232403 56 0 0.0 0.0 0.00 0.00 0.00 69 1017.3
20260503232305 56 0 0.0 0.0 0.00 0.00 0.00 69 1017.1
20260503232203 56 0 0.0 0.0 0.00 0.00 0.00 69 1017.4
20260503232103 56 0 0.0 0.0 0.00 0.00 0.00 69 1017.3
20260503232003 56 0 0.0 0.0 0.00 0.00 0.00 69 1017.4
20260503231903 56 0 0.0 0.0 0.00 0.00 0.00 69 1017.2
20260503231803 56 0 0.0 0.0 0.00 0.00 0.00 69 1017.3
20260503231703 56 0 0.0 0.0 0.00 0.00 0.00 70 1017.4
20260503231603 56 0 0.0 0.0 0.00 0.00 0.00 70 1017.5
20260503231503 56 0 0.0 0.0 0.00 0.00 0.00 70 1017.1
20260503231403 55 0 0.0 0.0 0.00 0.00 0.00 70 1017.3
20260503231303 55 0 0.0 0.0 0.00 0.00 0.00 70 1017.3
20260503231003 55 0 0.0 0.0 0.00 0.00 0.00 70 1017.2
20260503230903 55 0 0.0 0.0 0.00 0.00 0.00 70 1017.3
20260503230803 55 0 0.0 0.0 0.00 0.00 0.00 70 1017.4
20260503230703 55 0 0.0 0.0 0.00 0.00 0.00 70 1017.3
20260503230603 55 0 0.0 0.0 0.00 0.00 0.00 70 1017.3
20260503230503 55 0 0.0 0.0 0.00 0.00 0.00 70 1017.3
20260503230403 55 0 0.0 0.0 0.00 0.00 0.00 71 1017.3
20260503230303 55 0 0.0 0.0 0.00 0.00 0.00 71 1017.4
20260503230203 55 0 0.0 0.0 0.00 0.00 0.00 71 1017.0
20260503230103 55 0 0.0 0.0 0.00 0.00 0.00 71 1017.3
20260503230004 55 0 0.0 0.0 0.00 0.00 0.00 71 1017.4
20260503225903 55 0 0.0 0.0 0.00 0.00 0.00 71 1017.3
20260503225803 55 0 0.0 0.0 0.00 0.00 0.00 71 1017.4
20260503225704 55 0 0.0 0.0 0.00 0.00 0.00 71 1017.3
20260503225603 55 0 0.0 0.0 0.00 0.00 0.00 71 1017.4
20260503225503 55 0 0.0 0.0 0.00 0.00 0.00 71 1017.3
20260503225403 55 0 0.0 0.0 0.00 0.00 0.00 71 1017.3
20260503225304 55 0 0.0 0.0 0.00 0.00 0.00 71 1017.5
20260503225203 55 0 0.0 0.0 0.00 0.00 0.00 71 1017.3
20260503225103 55 0 0.0 0.0 0.00 0.00 0.00 71 1017.3
20260503225003 55 0 0.0 0.0 0.00 0.00 0.00 71 1017.3
20260503224903 55 0 0.0 0.0 0.00 0.00 0.00 71 1017.5
20260503224803 55 0 0.0 0.0 0.00 0.00 0.00 71 1017.0
20260503224703 54 0 0.0 0.0 0.00 0.00 0.00 71 1017.3
20260503224603 54 0 0.0 0.0 0.00 0.00 0.00 71 1017.3
20260503224503 54 0 0.0 0.0 0.00 0.00 0.00 71 1017.1
20260503224403 54 0 0.0 0.0 0.00 0.00 0.00 71 1017.5
20260503224303 54 0 0.0 0.0 0.00 0.00 0.00 71 1017.3
20260503224203 54 0 0.0 0.0 0.00 0.00 0.00 70 1017.3
20260503224103 54 0 0.0 0.0 0.00 0.00 0.00 70 1017.3
20260503224003 54 0 0.0 0.0 0.00 0.00 0.00 70 1017.3
20260503223903 54 0 0.0 0.0 0.00 0.00 0.00 70 1017.5
20260503223803 55 0 0.0 0.0 0.00 0.00 0.00 70 1017.5
20260503223703 55 0 0.0 0.0 0.00 0.00 0.00 70 1017.5
20260503223603 55 0 0.0 0.0 0.00 0.00 0.00 70 1017.5
20260503223503 55 0 0.0 0.0 0.00 0.00 0.00 70 1017.6
20260503223403 55 0 0.0 0.0 0.00 0.00 0.00 70 1017.5
20260503223303 55 0 0.0 0.0 0.00 0.00 0.00 70 1017.4
20260503223203 55 0 0.0 0.0 0.00 0.00 0.00 70 1017.4
20260503223104 55 0 0.0 0.0 0.00 0.00 0.00 70 1017.4
20260503223003 55 0 0.0 0.0 0.00 0.00 0.00 70 1017.4
20260503222903 55 0 0.0 0.0 0.00 0.00 0.00 70 1017.4
20260503222803 55 0 0.0 0.0 0.00 0.00 0.00 70 1017.4
20260503222703 55 0 0.0 0.0 0.00 0.00 0.00 70 1017.6
20260503222603 55 0 0.0 0.0 0.00 0.00 0.00 70 1017.2
20260503222503 55 0 0.0 0.0 0.00 0.00 0.00 70 1017.3
20260503222403 55 0 0.0 0.0 0.00 0.00 0.00 70 1017.2
20260503222304 55 0 0.0 0.0 0.00 0.00 0.00 70 1017.4
20260503222203 55 0 0.0 0.0 0.00 0.00 0.00 70 1017.5
20260503222103 55 0 0.0 0.0 0.00 0.00 0.00 70 1017.3
20260503222003 54 0 0.0 0.0 0.00 0.00 0.00 69 1017.4
20260503221903 55 0 0.0 0.0 0.00 0.00 0.00 69 1017.4
20260503221803 55 0 0.0 0.0 0.00 0.00 0.00 69 1017.5
20260503221703 55 0 0.0 0.0 0.00 0.00 0.00 69 1017.5
20260503221603 55 0 0.0 0.0 0.00 0.00 0.00 69 1017.5
20260503221503 55 0 0.0 0.0 0.00 0.00 0.00 69 1017.5
20260503221403 55 0 0.0 0.0 0.00 0.00 0.00 69 1017.5
20260503221303 55 0 0.0 0.0 0.00 0.00 0.00 69 1017.3
20260503221203 55 0 0.0 0.0 0.00 0.00 0.00 69 1017.4
20260503221103 55 0 0.0 0.0 0.00 0.00 0.00 69 1017.5
20260503221003 55 0 0.0 0.0 0.00 0.00 0.00 69 1017.5
20260503220903 55 0 0.0 0.0 0.00 0.00 0.00 69 1017.6
20260503220803 55 0 0.0 0.0 0.00 0.00 0.00 69 1017.6
20260503220703 55 0 0.0 0.0 0.00 0.00 0.00 69 1017.6
20260503220603 55 0 0.0 0.0 0.00 0.00 0.00 69 1017.4
20260503220503 56 0 0.0 0.0 0.00 0.00 0.00 69 1017.4
20260503220403 56 0 0.0 0.0 0.00 0.00 0.00 69 1017.4
20260503220303 56 0 0.0 0.0 0.00 0.00 0.00 68 1017.5
20260503220203 56 0 0.0 0.0 0.00 0.00 0.00 68 1017.5
20260503220103 56 0 0.0 0.0 0.00 0.00 0.00 68 1017.5
20260503220027 56 0 0.0 0.0 0.00 0.00 0.00 68 1017.5
20260503215903 56 0 0.0 0.0 0.00 0.00 0.00 68 1017.4
20260503215803 56 0 0.0 0.0 0.00 0.00 0.00 69 1017.4
20260503215703 56 0 0.0 0.0 0.00 0.00 0.00 69 1017.4
20260503215603 56 0 0.0 0.0 0.00 0.00 0.00 69 1017.3
20260503215503 56 0 0.0 0.0 0.00 0.00 0.00 69 1017.4
20260503215403 56 0 0.0 0.0 0.00 0.00 0.00 69 1017.4
20260503215304 55 0 0.0 0.0 0.00 0.00 0.00 69 1017.6
20260503215203 55 0 0.0 0.0 0.00 0.00 0.00 69 1017.3
20260503215103 55 0 0.0 0.0 0.00 0.00 0.00 69 1017.3
20260503215003 56 0 0.0 0.0 0.00 0.00 0.00 69 1017.4
20260503214903 56 0 0.0 0.0 0.00 0.00 0.00 69 1017.4
20260503214803 56 0 0.0 0.0 0.00 0.00 0.00 69 1017.3
20260503214703 56 0 0.0 0.0 0.00 0.00 0.00 69 1017.2
20260503214603 55 0 0.0 0.0 0.00 0.00 0.00 69 1017.3
20260503214503 55 0 0.0 0.0 0.00 0.00 0.00 69 1017.3
20260503214403 55 0 0.0 0.0 0.00 0.00 0.00 69 1017.4
20260503214303 56 0 0.0 0.0 0.00 0.00 0.00 69 1017.4
20260503214203 56 0 0.0 0.0 0.00 0.00 0.00 69 1017.5
20260503214103 56 0 0.0 0.0 0.00 0.00 0.00 69 1017.4
20260503214003 56 0 0.0 0.0 0.00 0.00 0.00 69 1017.3
20260503213903 56 0 0.0 0.0 0.00 0.00 0.00 69 1017.4
20260503213803 56 0 0.0 0.0 0.00 0.00 0.00 69 1017.4
20260503213703 56 0 0.0 0.0 0.00 0.00 0.00 70 1017.3
20260503213603 56 0 0.0 0.0 0.00 0.00 0.00 70 1017.3
20260503213503 56 0 0.0 0.0 0.00 0.00 0.00 70 1017.3
20260503213403 56 0 0.0 0.0 0.00 0.00 0.00 70 1017.4
20260503213303 56 0 0.0 0.0 0.00 0.00 0.00 70 1017.3
20260503213203 55 0 0.0 0.0 0.00 0.00 0.00 69 1017.4
20260503213103 55 0 0.0 0.0 0.00 0.00 0.00 69 1017.4
20260503213003 55 0 0.0 0.0 0.00 0.00 0.00 69 1017.3
20260503212903 55 0 0.0 0.0 0.00 0.00 0.00 69 1017.5
20260503212803 55 0 0.0 0.0 0.00 0.00 0.00 69 1017.2
20260503212703 55 0 0.0 0.0 0.00 0.00 0.00 69 1017.3
20260503212603 55 0 0.0 0.0 0.00 0.00 0.00 69 1017.4
20260503212503 55 0 0.0 0.0 0.00 0.00 0.00 69 1017.6
20260503212403 55 0 0.0 0.0 0.00 0.00 0.00 69 1017.5
20260503212305 55 0 0.0 0.0 0.00 0.00 0.00 69 1017.4
20260503212203 56 0 0.0 0.0 0.00 0.00 0.00 69 1017.5
20260503212103 56 0 0.0 0.0 0.00 0.00 0.00 69 1017.3
20260503212003 56 0 0.0 0.0 0.00 0.00 0.00 69 1017.4
20260503211903 56 0 0.0 0.0 0.00 0.00 0.00 69 1017.4
20260503211703 56 0 0.0 0.0 0.00 0.00 0.00 69 1017.4
20260503211603 56 0 0.0 0.0 0.00 0.00 0.00 69 1017.4
20260503211503 56 0 0.0 0.0 0.00 0.00 0.00 69 1017.5
20260503211403 56 0 0.0 0.0 0.00 0.00 0.00 69 1017.3
20260503211303 56 0 0.0 0.0 0.00 0.00 0.00 69 1017.4
20260503211203 56 0 0.0 0.0 0.00 0.00 0.00 69 1017.3
20260503211103 56 0 0.0 0.0 0.00 0.00 0.00 69 1017.6
20260503211003 56 0 0.0 0.0 0.00 0.00 0.00 69 1017.4
20260503210903 56 0 0.0 0.0 0.00 0.00 0.00 69 1017.5
20260503210803 56 0 0.0 0.0 0.00 0.00 0.00 69 1017.3
20260503210703 56 0 0.0 0.0 0.00 0.00 0.00 69 1017.2
20260503210603 56 0 0.0 0.0 0.00 0.00 0.00 69 1017.5
20260503210503 56 0 0.0 0.0 0.00 0.00 0.00 69 1017.3
20260503210403 56 0 0.0 0.0 0.00 0.00 0.00 69 1017.5
20260503210303 56 0 0.0 0.0 0.00 0.00 0.00 69 1017.5
20260503210203 56 0 0.0 0.0 0.00 0.00 0.00 69 1017.6
20260503210103 56 0 0.0 0.0 0.00 0.00 0.00 69 1017.3
20260503205904 56 0 0.0 0.0 0.00 0.00 0.00 69 1017.4
20260503205803 56 0 0.0 0.0 0.00 0.00 0.00 69 1017.6
20260503205703 56 0 0.0 0.0 0.00 0.00 0.00 69 1017.6
20260503205603 56 0 0.0 0.0 0.00 0.00 0.00 69 1017.4
20260503205503 56 0 0.0 0.0 0.00 0.00 0.00 69 1017.3
20260503205403 56 0 0.0 0.0 0.00 0.00 0.00 69 1017.5
20260503205304 56 0 0.0 0.0 0.00 0.00 0.00 69 1017.6
20260503205203 56 0 0.0 0.0 0.00 0.00 0.00 69 1017.5
20260503205103 56 0 0.0 0.0 0.00 0.00 0.00 69 1017.3
20260503205003 56 0 0.0 0.0 0.00 0.00 0.00 69 1017.5
20260503204903 56 0 0.0 0.0 0.00 0.00 0.00 70 1017.6
20260503204803 56 0 0.0 0.0 0.00 0.00 0.00 70 1017.3
20260503204703 56 0 0.0 0.0 0.00 0.00 0.00 70 1017.6
20260503204603 56 0 0.0 0.0 0.00 0.00 0.00 70 1017.4
20260503204503 56 0 0.0 0.0 0.00 0.00 0.00 70 1017.3
20260503204403 55 0 0.0 0.0 0.00 0.00 0.00 70 1017.5
20260503204303 55 0 0.0 0.0 0.00 0.00 0.00 69 1017.4
20260503204203 55 0 0.0 0.0 0.00 0.00 0.00 69 1017.4
20260503204103 56 0 0.0 0.0 0.00 0.00 0.00 69 1017.4
20260503204003 56 0 0.0 0.0 0.00 0.00 0.00 69 1017.4
20260503203903 56 0 0.0 0.0 0.00 0.00 0.00 69 1017.3
20260503203803 56 0 0.0 0.0 0.00 0.00 0.00 69 1017.6
20260503203703 56 0 0.0 0.0 0.00 0.00 0.00 69 1017.5
20260503203603 56 0 0.0 0.0 0.00 0.00 0.00 69 1017.4
20260503203503 56 0 0.0 0.0 0.00 0.00 0.00 69 1017.3
20260503203403 56 0 0.0 0.0 0.00 0.00 0.00 69 1017.6
20260503203303 56 0 0.0 0.0 0.00 0.00 0.00 69 1017.4
20260503203203 56 0 0.0 0.0 0.00 0.00 0.00 69 1017.4
20260503203103 56 0 0.0 0.0 0.00 0.00 0.00 69 1017.1
20260503203003 56 0 0.0 0.0 0.00 0.00 0.00 69 1017.2
20260503202903 56 0 0.0 0.0 0.00 0.00 0.00 69 1017.4
20260503202803 56 0 0.0 0.0 0.00 0.00 0.00 69 1017.2
20260503202703 56 0 0.0 0.0 0.00 0.00 0.00 69 1017.3
20260503202603 56 0 0.0 0.0 0.00 0.00 0.00 69 1017.1
20260503202503 56 0 0.0 0.0 0.00 0.00 0.00 70 1017.2
20260503202403 56 0 0.0 0.0 0.00 0.00 0.00 70 1017.2
20260503202304 56 0 0.0 0.0 0.00 0.00 0.00 70 1017.2
20260503202203 56 0 0.0 0.0 0.00 0.00 0.00 70 1017.2
20260503202103 56 0 0.0 0.0 0.00 0.00 0.00 70 1017.2
20260503202003 56 0 0.0 0.0 0.00 0.00 0.00 70 1017.2
20260503201903 56 0 0.0 0.0 0.00 0.00 0.00 70 1017.3
20260503201803 56 0 0.0 0.0 0.00 0.00 0.00 70 1017.2
20260503201703 56 0 0.0 0.0 0.00 0.00 0.00 70 1017.1
20260503201603 56 0 0.0 0.0 0.00 0.00 0.00 70 1016.9
20260503201503 56 0 0.0 0.0 0.00 0.00 0.00 70 1017.2
20260503201403 56 0 0.0 0.0 0.00 0.00 0.00 70 1017.3
20260503201303 56 0 0.0 0.0 0.00 0.00 0.00 70 1017.3
20260503201203 56 0 0.0 0.0 0.00 0.00 0.00 70 1017.2
20260503201103 56 0 0.0 0.0 0.00 0.00 0.00 70 1017.3
20260503201003 56 0 0.0 0.0 0.00 0.00 0.00 70 1017.2
20260503200903 56 0 0.0 0.0 0.00 0.00 0.00 70 1017.1
20260503200803 56 0 0.0 0.0 0.00 0.00 0.00 70 1017.2
20260503200703 56 0 0.0 0.0 0.00 0.00 0.00 70 1017.2
20260503200603 56 0 0.0 0.0 0.00 0.00 0.00 70 1017.2
20260503200503 56 0 0.0 0.0 0.00 0.00 0.00 70 1017.1
20260503200403 56 0 0.0 0.0 0.00 0.00 0.00 70 1017.3
20260503200303 56 0 0.0 0.0 0.00 0.00 0.00 70 1017.2
20260503200203 56 0 0.0 0.0 0.00 0.00 0.00 70 1017.1
20260503200003 56 0 0.0 0.0 0.00 0.00 0.00 70 1017.3
20260503195903 56 0 0.0 0.0 0.00 0.00 0.00 69 1017.3
20260503195803 56 0 0.0 0.0 0.00 0.00 0.00 69 1017.1
20260503195703 56 0 0.0 0.0 0.00 0.00 0.00 69 1017.2
20260503195603 56 0 0.0 0.0 0.00 0.00 0.00 69 1017.3
20260503195503 56 0 0.0 0.0 0.00 0.00 0.00 69 1017.1
20260503195403 56 0 0.0 0.0 0.00 0.00 0.00 69 1017.1
20260503195304 56 0 0.0 0.0 0.00 0.00 0.00 69 1017.2
20260503195203 56 0 0.0 0.0 0.00 0.00 0.00 69 1017.3
20260503195103 56 0 0.0 0.0 0.00 0.00 0.00 69 1017.2
20260503195003 56 0 0.0 0.0 0.00 0.00 0.00 69 1017.1
20260503194903 56 0 0.0 0.0 0.00 0.00 0.00 69 1017.0
20260503194803 56 0 0.0 0.0 0.00 0.00 0.00 69 1017.2
20260503194704 56 0 0.0 0.0 0.00 0.00 0.00 69 1017.3
20260503194607 56 0 0.0 0.0 0.00 0.00 0.00 69 1017.2
20260503194504 56 0 0.0 0.0 0.00 0.00 0.00 69 1017.1
20260503194403 56 0 0.0 0.0 0.00 0.00 0.00 69 1017.2
20260503194303 56 0 0.0 0.0 0.00 0.00 0.00 69 1017.0
20260503194205 56 0 0.0 0.0 0.00 0.00 0.00 69 1016.8
20260503194103 56 0 0.0 0.0 0.00 0.00 0.00 69 1017.3
20260503194003 56 0 0.0 0.0 0.00 0.00 0.00 69 1017.1
20260503193903 56 0 0.0 0.0 0.00 0.00 0.00 69 1017.0
20260503193804 56 0 0.0 0.0 0.00 0.00 0.00 69 1017.1
20260503193703 56 0 0.0 0.0 0.00 0.00 0.00 69 1017.1
20260503193603 56 0 0.0 0.0 0.00 0.00 0.00 69 1017.0
20260503193503 56 0 0.0 0.0 0.00 0.00 0.00 69 1017.0
20260503193403 56 0 0.0 0.0 0.00 0.00 0.00 69 1017.2
20260503193303 56 0 0.0 0.0 0.00 0.00 0.00 69 1017.0
20260503193203 56 0 0.0 0.0 0.00 0.00 0.00 69 1017.0
20260503193103 56 0 0.0 0.0 0.00 0.00 0.00 69 1017.1
20260503193003 56 0 0.0 0.0 0.00 0.00 0.00 69 1017.1
20260503192903 56 0 0.0 0.0 0.00 0.00 0.00 69 1017.0
20260503192803 56 0 0.0 0.0 0.00 0.00 0.00 69 1017.0
20260503192703 56 0 0.0 0.0 0.00 0.00 0.00 69 1017.2
20260503192603 56 0 0.0 0.0 0.00 0.00 0.00 69 1017.0
20260503192503 56 0 0.0 0.0 0.00 0.00 0.00 69 1016.9
20260503192403 56 0 0.0 0.0 0.00 0.00 0.00 69 1016.9
20260503192305 56 0 0.0 0.0 0.00 0.00 0.00 69 1017.1
20260503192203 56 0 0.0 0.0 0.00 0.00 0.00 69 1016.8
20260503192103 56 0 0.0 0.0 0.00 0.00 0.00 69 1017.0
20260503192003 56 0 0.0 0.0 0.00 0.00 0.00 69 1017.1
20260503191903 56 0 0.0 0.0 0.00 0.00 0.00 69 1016.8
20260503191803 56 0 0.0 0.0 0.00 0.00 0.00 69 1016.9
20260503191703 56 0 0.0 0.0 0.00 0.00 0.00 69 1016.9
20260503191603 56 0 0.0 0.0 0.00 0.00 0.00 69 1016.9
20260503191503 56 0 0.0 0.0 0.00 0.00 0.00 69 1016.9
20260503191403 56 0 0.0 0.0 0.00 0.00 0.00 69 1016.9
20260503191303 56 0 0.0 0.0 0.00 0.00 0.00 69 1017.1
20260503191203 56 0 0.0 0.0 0.00 0.00 0.00 69 1017.0
20260503191103 56 0 0.0 0.0 0.00 0.00 0.00 69 1016.8
20260503191003 56 0 0.0 0.0 0.00 0.00 0.00 69 1017.0
20260503190903 56 0 0.0 0.0 0.00 0.00 0.00 69 1017.0
20260503190803 56 0 0.0 0.0 0.00 0.00 0.00 69 1017.0
20260503190703 56 0 0.0 0.0 0.00 0.00 0.00 69 1017.0
20260503190604 56 0 0.0 0.0 0.00 0.00 0.00 69 1016.9
20260503190503 57 0 0.0 0.0 0.00 0.00 0.00 69 1016.9
20260503190403 57 0 0.0 0.0 0.00 0.00 0.00 69 1017.0
20260503190303 57 0 0.0 0.0 0.00 0.00 0.00 69 1016.7
20260503190203 57 0 0.0 0.0 0.00 0.00 0.00 69 1017.1
20260503190103 57 0 0.0 0.0 0.00 0.00 0.00 69 1016.7
20260503190003 57 0 0.0 0.0 0.00 0.00 0.00 69 1016.8
20260503185903 57 0 0.0 0.0 0.00 0.00 0.00 69 1016.8
20260503185803 57 0 0.0 0.0 0.00 0.00 0.00 69 1016.8
20260503185703 57 0 0.0 0.0 0.00 0.00 0.00 69 1016.6
20260503185603 57 0 0.0 0.0 0.00 0.00 0.00 69 1016.8
20260503185503 57 0 0.0 0.0 0.00 0.00 0.00 69 1016.8
20260503185403 57 0 0.0 0.0 0.00 0.00 0.00 69 1016.7
20260503185304 57 0 0.0 0.0 0.00 0.00 0.00 69 1016.9
20260503185203 57 0 0.0 0.0 0.00 0.00 0.00 69 1016.7
20260503185103 57 0 0.0 0.0 0.00 0.00 0.00 69 1016.9
20260503184903 57 0 0.0 0.0 0.00 0.00 0.00 69 1016.9
20260503184803 57 0 0.0 0.0 0.00 0.00 0.00 69 1016.5
20260503184703 57 0 0.0 0.0 0.00 0.00 0.00 69 1016.6
20260503184603 57 0 0.0 0.0 0.00 0.00 0.00 69 1016.7
20260503184503 57 0 0.0 0.0 0.00 0.00 0.00 69 1016.7
20260503184403 57 0 0.0 0.0 0.00 0.00 0.00 69 1016.6
20260503184303 57 0 0.0 0.0 0.00 0.00 0.00 69 1016.7
20260503184203 57 0 0.0 0.0 0.00 0.00 0.00 69 1016.8
20260503184103 57 0 0.0 0.0 0.00 0.00 0.00 69 1016.8
20260503184003 57 0 0.0 0.0 0.00 0.00 0.00 69 1016.6
20260503183903 57 0 0.0 0.0 0.00 0.00 0.00 69 1016.8
20260503183803 57 0 0.0 0.0 0.00 0.00 0.00 69 1016.7
20260503183704 57 0 0.0 0.0 0.00 0.00 0.00 69 1016.8
20260503183603 57 0 0.0 0.0 0.00 0.00 0.00 69 1017.0
20260503183503 57 0 0.0 0.0 0.00 0.00 0.00 69 1016.7
20260503183403 57 0 0.0 0.0 0.00 0.00 0.00 69 1016.7
20260503183303 57 0 0.0 0.0 0.00 0.00 0.00 69 1016.8
20260503183203 57 0 0.0 0.0 0.00 0.00 0.00 69 1016.9
20260503183103 57 0 0.0 0.0 0.00 0.00 0.00 69 1016.8
20260503183004 57 0 0.0 0.0 0.00 0.00 0.00 69 1016.9
20260503182903 57 0 0.0 0.0 0.00 0.00 0.00 69 1016.6
20260503182803 57 0 0.0 0.0 0.00 0.00 0.00 69 1016.7
20260503182704 57 0 0.0 0.0 0.00 0.00 0.00 69 1016.5
20260503182603 57 0 0.0 0.0 0.00 0.00 0.00 69 1016.7
20260503182504 57 0 0.0 0.0 0.00 0.00 0.00 69 1016.5
20260503182403 57 0 0.0 0.0 0.00 0.00 0.00 69 1016.5
20260503182305 57 315 0.0 2.0 0.00 0.00 0.00 69 1016.5
20260503182203 58 289 0.0 2.0 0.00 0.00 0.00 69 1016.6
20260503182103 58 287 1.0 4.0 0.00 0.00 0.00 69 1016.7
20260503182004 58 283 1.0 4.0 0.00 0.00 0.00 69 1016.4
20260503181903 58 280 1.0 4.0 0.00 0.00 0.00 69 1016.5
20260503181803 58 292 2.0 4.0 0.00 0.00 0.00 68 1016.7
20260503181703 58 292 2.0 4.0 0.00 0.00 0.00 68 1016.4
20260503181603 58 296 3.0 4.0 0.00 0.00 0.00 68 1016.4
20260503181504 58 295 3.0 4.0 0.00 0.00 0.00 68 1016.5
20260503181403 58 292 3.0 4.0 0.00 0.00 0.00 68 1016.6
20260503181303 58 289 4.0 4.0 0.00 0.00 0.00 68 1016.5
20260503181203 58 288 4.0 4.0 0.00 0.00 0.00 68 1016.5
20260503181103 58 288 4.0 4.0 0.00 0.00 0.00 68 1016.7
20260503181004 58 287 4.0 4.0 0.00 0.00 0.00 68 1016.5
20260503180903 58 287 4.0 4.0 0.00 0.00 0.00 68 1016.6
20260503180803 58 281 4.0 4.0 0.00 0.00 0.00 68 1016.5
20260503180703 58 276 4.0 4.0 0.00 0.00 0.00 68 1016.6
20260503180603 58 272 4.0 4.0 0.00 0.00 0.00 68 1016.7
20260503180503 58 269 4.0 4.0 0.00 0.00 0.00 68 1016.5
20260503180403 58 267 4.0 4.0 0.00 0.00 0.00 68 1016.6
20260503180303 58 267 4.0 4.0 0.00 0.00 0.00 68 1016.5
20260503180203 58 267 4.0 6.0 0.00 0.00 0.00 68 1016.5
20260503180103 58 266 4.0 6.0 0.00 0.00 0.00 68 1016.5
20260503180004 58 267 5.0 6.0 0.00 0.00 0.00 68 1016.5
20260503175903 58 268 5.0 6.0 0.00 0.00 0.00 68 1016.6
20260503175803 58 264 5.0 7.0 0.00 0.00 0.00 68 1016.4
20260503175703 58 263 5.0 7.0 0.00 0.00 0.00 68 1016.5
20260503175603 58 261 5.0 7.0 0.00 0.00 0.00 68 1016.6
20260503175503 58 261 5.0 7.0 0.00 0.00 0.00 68 1016.3
20260503175403 58 262 5.0 7.0 0.00 0.00 0.00 68 1016.5
20260503175304 58 261 5.0 7.0 0.00 0.00 0.00 68 1016.6
20260503175203 58 261 5.0 7.0 0.00 0.00 0.00 68 1016.4
20260503175103 58 259 6.0 7.0 0.00 0.00 0.00 68 1016.4
20260503175003 58 259 6.0 7.0 0.00 0.00 0.00 68 1016.5
20260503174903 58 258 6.0 7.0 0.00 0.00 0.00 68 1016.6
20260503174803 58 263 6.0 7.0 0.00 0.00 0.00 67 1016.5
20260503174703 58 262 6.0 8.0 0.00 0.00 0.00 67 1016.5
20260503174603 58 264 6.0 8.0 0.00 0.00 0.00 67 1016.5
20260503174503 58 265 6.0 8.0 0.00 0.00 0.00 67 1016.5
20260503174403 58 265 6.0 8.0 0.00 0.00 0.00 67 1016.3
20260503174303 58 265 6.0 8.0 0.00 0.00 0.00 67 1016.5
20260503174203 58 262 6.0 8.0 0.00 0.00 0.00 67 1016.4
20260503174103 58 260 6.0 8.0 0.00 0.00 0.00 67 1016.6
20260503174003 58 260 6.0 8.0 0.00 0.00 0.00 68 1016.5
20260503173903 58 259 6.0 8.0 0.00 0.00 0.00 68 1016.5
20260503173803 58 257 6.0 8.0 0.00 0.00 0.00 68 1016.6
20260503173703 58 254 6.0 8.0 0.00 0.00 0.00 68 1016.4
20260503173603 59 253 6.0 8.0 0.00 0.00 0.00 69 1016.6
20260503173503 59 251 7.0 8.0 0.00 0.00 0.00 69 1016.4
20260503173403 59 251 7.0 9.0 0.00 0.00 0.00 69 1016.6
20260503173303 59 252 7.0 9.0 0.00 0.00 0.00 69 1016.4
20260503173203 59 253 7.0 9.0 0.00 0.00 0.00 69 1016.4
20260503173103 59 253 8.0 9.0 0.00 0.00 0.00 69 1016.5
20260503173003 59 254 8.0 9.0 0.00 0.00 0.00 69 1016.4
20260503172903 59 256 8.0 11.0 0.00 0.00 0.00 68 1016.5
20260503172803 59 255 8.0 11.0 0.00 0.00 0.00 68 1016.6
20260503172703 59 257 8.0 11.0 0.00 0.00 0.00 68 1016.5
20260503172603 59 257 8.0 11.0 0.00 0.00 0.00 68 1016.4
20260503172504 59 257 8.0 11.0 0.00 0.00 0.00 68 1016.5
20260503172403 59 255 8.0 11.0 0.00 0.00 0.00 68 1016.4
20260503172305 59 254 8.0 11.0 0.00 0.00 0.00 68 1016.5
20260503172203 59 255 8.0 11.0 0.00 0.00 0.00 68 1016.4
20260503172103 59 257 8.0 11.0 0.00 0.00 0.00 68 1016.6
20260503172003 59 258 8.0 11.0 0.00 0.00 0.00 68 1016.5
20260503171903 59 258 7.0 11.0 0.00 0.00 0.00 68 1016.3
20260503171803 59 254 7.0 9.0 0.00 0.00 0.00 68 1016.5
20260503171703 59 253 7.0 9.0 0.00 0.00 0.00 68 1016.4
20260503171603 59 254 7.0 9.0 0.00 0.00 0.00 68 1016.5
20260503171503 59 256 8.0 9.0 0.00 0.00 0.00 68 1016.2
20260503171403 59 256 8.0 9.0 0.00 0.00 0.00 68 1016.5
20260503171303 59 257 8.0 9.0 0.00 0.00 0.00 68 1016.3
20260503171203 59 255 8.0 9.0 0.00 0.00 0.00 68 1016.2
20260503171103 60 254 8.0 9.0 0.00 0.00 0.00 68 1016.4
20260503171003 60 254 8.0 9.0 0.00 0.00 0.00 68 1016.5
20260503170903 59 255 8.0 9.0 0.00 0.00 0.00 68 1016.5
20260503170803 59 258 8.0 9.0 0.00 0.00 0.00 68 1016.3
20260503170703 59 259 8.0 9.0 0.00 0.00 0.00 68 1016.2
20260503170603 59 262 8.0 9.0 0.00 0.00 0.00 68 1016.3
20260503170503 59 261 8.0 9.0 0.00 0.00 0.00 68 1016.4
20260503170403 60 263 8.0 9.0 0.00 0.00 0.00 68 1016.2
20260503170303 60 264 8.0 9.0 0.00 0.00 0.00 68 1016.3
20260503170203 60 263 8.0 9.0 0.00 0.00 0.00 68 1016.2
20260503170103 60 264 8.0 9.0 0.00 0.00 0.00 68 1016.1
20260503160203 62 247 11.0 14.0 0.00 0.00 0.00 82 1016.3
20260503160103 62 244 11.0 14.0 0.00 0.00 0.00 81 1016.5
20260503151003 62 240 13.0 16.0 0.00 0.00 0.00 77 1016.5
20260503150903 62 243 13.0 16.0 0.00 0.00 0.00 77 1016.2
20260503150803 62 249 13.0 16.0 0.00 0.00 0.00 77 1016.3
20260503150703 63 250 13.0 16.0 0.00 0.00 0.00 77 1016.6
20260503150603 63 247 13.0 16.0 0.00 0.00 0.00 77 1016.3
20260503150503 62 247 13.0 16.0 0.00 0.00 0.00 78 1016.5
20260503150403 63 245 13.0 16.0 0.00 0.00 0.00 79 1016.5
20260503150303 63 247 12.0 16.0 0.00 0.00 0.00 79 1016.4
20260503150203 63 247 12.0 15.0 0.00 0.00 0.00 80 1016.5
20260503150103 62 244 12.0 15.0 0.00 0.00 0.00 81 1016.5
20260503140203 64 240 13.0 16.0 0.00 0.00 0.00 78 1016.8
20260503131403 64 245 11.0 13.0 0.00 0.00 0.00 80 1016.9
20260503131303 64 251 10.0 13.0 0.00 0.00 0.00 80 1017.2
20260503131203 64 253 10.0 13.0 0.00 0.00 0.00 80 1017.1
20260503131103 65 252 9.0 13.0 0.00 0.00 0.00 80 1017.1
20260503131003 64 252 9.0 13.0 0.00 0.00 0.00 80 1017.3
20260503130903 65 251 9.0 13.0 0.00 0.00 0.00 79 1017.3
20260503130803 65 255 9.0 13.0 0.00 0.00 0.00 79 1017.1
20260503130703 65 253 9.0 13.0 0.00 0.00 0.00 78 1017.2
20260503130603 65 253 8.0 11.0 0.00 0.00 0.00 78 1017.1
20260503130503 64 257 8.0 11.0 0.00 0.00 0.00 80 1017.3
20260503130403 64 263 8.0 11.0 0.00 0.00 0.00 79 1017.1
20260503130303 64 262 8.0 11.0 0.00 0.00 0.00 79 1017.3
20260503130203 65 260 8.0 11.0 0.00 0.00 0.00 79 1017.3
20260503130103 64 255 8.0 11.0 0.00 0.00 0.00 78 1017.4